Time;durP1;ratioP1;P1;durP2;ratioP2;P2;SDS_P1;SDS_P2;PMS_P1;PMS_P2;Temp;Humidity;BMP_temperature;BMP_pressure;BME280_temperature;BME280_humidity;BME280_pressure;Samples;Min_cycle;Max_cycle;Signal;HPM_P1;HPM_P2
2022/04/11 00:01:14;;;;;;;10.23;4.60;;;;;;;;;;4947996;28;20454;-75
2022/04/11 00:03:40;;;;;;;9.90;4.78;;;;;;;;;;4947718;28;20653;-75
2022/04/11 00:06:06;;;;;;;9.10;4.70;;;;;;;;;;4949078;28;20861;-75
2022/04/11 00:08:32;;;;;;;12.20;4.68;;;;;;;;;;4949520;28;20430;-76
2022/04/11 00:10:58;;;;;;;7.97;4.50;;;;;;;;;;4950181;28;20758;-75
2022/04/11 00:13:24;;;;;;;9.27;4.25;;;;;;;;;;4949435;28;20465;-75
2022/04/11 00:15:51;;;;;;;11.70;4.30;;;;;;;;;;4948353;28;20422;-75
2022/04/11 00:18:17;;;;;;;7.32;4.10;;;;;;;;;;4950349;28;20426;-75
2022/04/11 00:20:43;;;;;;;9.30;4.43;;;;;;;;;;4948316;28;20441;-75
2022/04/11 00:23:09;;;;;;;9.68;3.90;;;;;;;;;;4951092;28;20422;-75
2022/04/11 00:25:35;;;;;;;7.25;4.07;;;;;;;;;;5014587;28;20458;-75
2022/04/11 00:28:01;;;;;;;10.80;4.18;;;;;;;;;;4948246;28;20440;-75
2022/04/11 00:30:28;;;;;;;9.10;4.18;;;;;;;;;;4949955;28;20429;-75
2022/04/11 00:32:54;;;;;;;10.15;4.18;;;;;;;;;;4950789;28;20495;-76
2022/04/11 00:35:20;;;;;;;10.93;4.30;;;;;;;;;;4948814;28;20434;-76
2022/04/11 00:37:46;;;;;;;11.45;4.05;;;;;;;;;;5014636;28;20430;-76
2022/04/11 00:40:13;;;;;;;6.95;3.72;;;;;;;;;;5026247;28;20438;-76
2022/04/11 00:42:39;;;;;;;9.48;3.92;;;;;;;;;;4947980;28;20970;-76
2022/04/11 00:45:06;;;;;;;7.47;3.60;;;;;;;;;;4947007;28;20433;-76
2022/04/11 00:47:32;;;;;;;8.60;3.88;;;;;;;;;;4949520;28;20437;-76
2022/04/11 00:50:03;;;;;;;6.75;4.15;;;;;;;;;;4948314;28;20470;-77
2022/04/11 00:52:30;;;;;;;9.57;3.93;;;;;;;;;;5016094;28;20422;-75
2022/04/11 00:54:58;;;;;;;10.57;4.60;;;;;;;;;;4948541;28;20471;-76
2022/04/11 00:57:24;;;;;;;9.35;4.03;;;;;;;;;;4949089;28;20434;-76
2022/04/11 00:59:50;;;;;;;8.32;4.00;;;;;;;;;;4949004;28;20433;-76
2022/04/11 01:02:16;;;;;;;8.25;4.10;;;;;;;;;;5016798;28;20430;-76
2022/04/11 01:04:42;;;;;;;9.48;4.07;;;;;;;;;;4945857;28;20433;-76
2022/04/11 01:07:09;;;;;;;6.63;3.85;;;;;;;;;;4944863;28;20429;-76
2022/04/11 01:09:35;;;;;;;8.57;3.92;;;;;;;;;;5031528;28;20422;-76
2022/04/11 01:12:01;;;;;;;7.43;3.90;;;;;;;;;;4949307;28;20437;-76
2022/04/11 01:14:27;;;;;;;8.63;3.50;;;;;;;;;;5007906;28;20436;-76
2022/04/11 01:16:54;;;;;;;10.13;3.83;;;;;;;;;;4944874;28;20995;-75
2022/04/11 01:19:21;;;;;;;8.00;3.80;;;;;;;;;;5016390;28;20454;-75
2022/04/11 01:21:47;;;;;;;8.85;3.80;;;;;;;;;;4949136;28;20430;-75
2022/04/11 01:24:14;;;;;;;7.15;3.72;;;;;;;;;;4997197;28;20466;-76
2022/04/11 01:26:40;;;;;;;7.05;3.65;;;;;;;;;;4946518;28;20428;-76
2022/04/11 01:29:08;;;;;;;7.68;3.70;;;;;;;;;;4947205;28;20433;-76
2022/04/11 01:31:34;;;;;;;7.53;3.73;;;;;;;;;;4946831;28;20450;-76
2022/04/11 01:34:00;;;;;;;8.35;3.80;;;;;;;;;;4948638;28;20516;-76
2022/04/11 01:36:26;;;;;;;6.60;3.33;;;;;;;;;;5015332;28;20446;-75
2022/04/11 01:38:53;;;;;;;5.93;3.70;;;;;;;;;;4948872;28;20437;-76
2022/04/11 01:41:22;;;;;;;7.25;4.05;;;;;;;;;;4949618;28;20452;-76
2022/04/11 01:43:48;;;;;;;7.30;3.72;;;;;;;;;;4949940;28;20425;-76
2022/04/11 01:46:14;;;;;;;10.68;3.95;;;;;;;;;;5012570;28;20456;-76
2022/04/11 01:48:40;;;;;;;5.85;3.60;;;;;;;;;;4947718;28;20513;-76
2022/04/11 01:51:06;;;;;;;8.32;3.85;;;;;;;;;;4997925;28;20857;-75
2022/04/11 01:53:32;;;;;;;6.97;3.67;;;;;;;;;;4949211;28;20426;-75
2022/04/11 01:55:59;;;;;;;5.68;3.38;;;;;;;;;;4947013;28;20545;-81
2022/04/11 01:58:25;;;;;;;7.13;3.60;;;;;;;;;;4948316;28;20425;-79
2022/04/11 02:00:51;;;;;;;7.65;3.55;;;;;;;;;;4949922;28;20465;-80
2022/04/11 02:03:17;;;;;;;8.02;3.63;;;;;;;;;;5015047;28;21555;-79
2022/04/11 02:05:43;;;;;;;6.43;3.70;;;;;;;;;;5014891;28;20472;-79
2022/04/11 02:08:10;;;;;;;7.15;3.60;;;;;;;;;;5013558;28;20433;-79
2022/04/11 02:10:40;;;;;;;7.18;3.85;;;;;;;;;;5015121;28;20508;-79
2022/04/11 02:13:06;;;;;;;10.05;3.97;;;;;;;;;;4997603;28;20437;-79
2022/04/11 02:15:33;;;;;;;6.88;3.95;;;;;;;;;;4980072;28;20925;-79
2022/04/11 02:17:59;;;;;;;6.93;3.90;;;;;;;;;;5014035;28;20426;-79
2022/04/11 02:20:26;;;;;;;7.40;3.80;;;;;;;;;;5019269;28;20524;-80
2022/04/11 02:22:56;;;;;;;8.85;3.85;;;;;;;;;;5026384;28;20475;-80
2022/04/11 02:25:24;;;;;;;8.63;4.40;;;;;;;;;;4993687;28;21027;-79
2022/04/11 02:27:50;;;;;;;8.50;4.18;;;;;;;;;;4997710;28;20430;-80
2022/04/11 02:30:17;;;;;;;6.07;3.60;;;;;;;;;;5018606;28;20925;-79
2022/04/11 02:32:43;;;;;;;11.35;4.20;;;;;;;;;;5008091;28;20451;-79
2022/04/11 02:35:10;;;;;;;8.40;3.67;;;;;;;;;;4961382;28;20517;-79
2022/04/11 02:37:36;;;;;;;6.93;3.78;;;;;;;;;;5013545;28;20578;-79
2022/04/11 02:40:03;;;;;;;8.18;3.53;;;;;;;;;;5012376;28;20442;-79
2022/04/11 02:42:29;;;;;;;6.80;3.70;;;;;;;;;;4937250;28;20430;-79
2022/04/11 02:44:55;;;;;;;8.82;3.70;;;;;;;;;;5013881;28;20426;-81
2022/04/11 02:47:21;;;;;;;8.57;3.90;;;;;;;;;;4948190;28;20471;-79
2022/04/11 02:49:48;;;;;;;9.68;3.90;;;;;;;;;;4967194;28;20446;-80
2022/04/11 02:52:14;;;;;;;7.93;3.60;;;;;;;;;;5024275;28;20941;-80
2022/04/11 02:54:41;;;;;;;8.52;3.92;;;;;;;;;;5015377;28;20424;-80
2022/04/11 02:57:07;;;;;;;9.93;4.05;;;;;;;;;;5012461;28;20442;-80
2022/04/11 02:59:33;;;;;;;6.93;3.90;;;;;;;;;;4990746;28;20434;-80
2022/04/11 03:02:00;;;;;;;6.22;3.53;;;;;;;;;;5015306;28;20430;-80
2022/04/11 03:04:29;;;;;;;7.00;3.63;;;;;;;;;;5011665;28;20471;-83
2022/04/11 03:06:55;;;;;;;13.85;3.60;;;;;;;;;;5017377;28;20932;-81
2022/04/11 03:09:21;;;;;;;7.13;3.90;;;;;;;;;;5018756;28;21072;-81
2022/04/11 03:11:47;;;;;;;6.13;3.83;;;;;;;;;;5019017;28;20433;-81
2022/04/11 03:14:13;;;;;;;7.55;3.80;;;;;;;;;;4982805;28;20457;-81
2022/04/11 03:16:42;;;;;;;7.10;3.67;;;;;;;;;;5000272;28;20434;-81
2022/04/11 03:19:09;;;;;;;6.55;3.53;;;;;;;;;;4999186;28;20970;-81
2022/04/11 03:21:35;;;;;;;9.30;4.68;;;;;;;;;;5012787;28;20480;-80
2022/04/11 03:24:02;;;;;;;7.55;4.00;;;;;;;;;;5017026;28;21105;-81
2022/04/11 03:26:28;;;;;;;6.20;3.90;;;;;;;;;;5019537;28;20429;-81
2022/04/11 03:28:54;;;;;;;8.73;4.30;;;;;;;;;;5018997;28;20440;-81
2022/04/11 03:31:20;;;;;;;7.97;4.20;;;;;;;;;;5016634;28;20433;-81
2022/04/11 03:33:46;;;;;;;7.07;3.97;;;;;;;;;;4965379;28;20440;-81
2022/04/11 03:36:12;;;;;;;6.43;3.58;;;;;;;;;;5000281;28;20521;-80
2022/04/11 03:38:38;;;;;;;6.88;3.53;;;;;;;;;;4980682;28;20477;-81
2022/04/11 03:41:04;;;;;;;6.77;3.70;;;;;;;;;;5014822;28;20429;-81
2022/04/11 03:43:30;;;;;;;7.95;4.78;;;;;;;;;;5016340;28;20528;-81
2022/04/11 03:45:56;;;;;;;6.27;3.80;;;;;;;;;;5013167;28;20559;-81
2022/04/11 03:48:22;;;;;;;7.20;3.38;;;;;;;;;;4927482;28;21050;-76
2022/04/11 03:50:49;;;;;;;7.55;3.58;;;;;;;;;;5015475;28;20448;-76
2022/04/11 03:53:16;;;;;;;6.97;3.50;;;;;;;;;;5016122;28;20789;-76
2022/04/11 03:55:42;;;;;;;6.65;3.40;;;;;;;;;;5018120;28;20448;-76
2022/04/11 03:58:09;;;;;;;8.73;3.80;;;;;;;;;;5017175;28;20531;-76
2022/04/11 04:00:35;;;;;;;6.75;3.60;;;;;;;;;;5012702;28;20426;-76
2022/04/11 04:03:08;;;;;;;8.38;4.93;;;;;;;;;;4949915;28;20468;-76
2022/04/11 04:05:39;;;;;;;6.45;3.50;;;;;;;;;;4947488;28;20980;-76
2022/04/11 04:08:05;;;;;;;6.53;3.40;;;;;;;;;;4949773;28;20808;-76
2022/04/11 04:10:31;;;;;;;7.78;3.78;;;;;;;;;;5015219;28;20925;-76
2022/04/11 04:12:58;;;;;;;6.32;3.50;;;;;;;;;;5015960;28;20805;-75
2022/04/11 04:15:24;;;;;;;7.60;3.93;;;;;;;;;;4949987;28;20430;-75
2022/04/11 04:17:53;;;;;;;7.82;3.72;;;;;;;;;;4950376;28;20425;-76
2022/04/11 04:20:19;;;;;;;7.05;3.60;;;;;;;;;;4948695;28;20450;-76
2022/04/11 04:22:45;;;;;;;7.83;5.53;;;;;;;;;;4948676;28;21738;-76
2022/04/11 04:25:11;;;;;;;7.78;3.83;;;;;;;;;;4950861;28;20433;-76
2022/04/11 04:27:38;;;;;;;6.57;3.80;;;;;;;;;;5014508;28;20491;-76
2022/04/11 04:30:05;;;;;;;7.13;3.63;;;;;;;;;;4948977;28;20422;-76
2022/04/11 04:32:31;;;;;;;8.35;3.80;;;;;;;;;;4948012;28;20430;-76
2022/04/11 04:34:57;;;;;;;9.18;3.63;;;;;;;;;;4950197;28;20422;-76
2022/04/11 04:37:23;;;;;;;6.50;3.60;;;;;;;;;;4947464;28;20458;-78
2022/04/11 04:39:49;;;;;;;7.13;3.70;;;;;;;;;;5015251;28;20438;-78
2022/04/11 04:42:22;;;;;;;9.80;5.35;;;;;;;;;;4992532;28;20462;-78
2022/04/11 04:44:48;;;;;;;9.43;4.18;;;;;;;;;;5014878;28;20440;-78
2022/04/11 04:47:17;;;;;;;8.82;4.28;;;;;;;;;;4949789;28;20422;-79
2022/04/11 04:49:44;;;;;;;8.43;4.27;;;;;;;;;;4997290;28;20442;-80
2022/04/11 04:52:10;;;;;;;7.65;3.80;;;;;;;;;;4997336;28;20434;-80
2022/04/11 04:54:37;;;;;;;6.43;3.50;;;;;;;;;;5013342;28;20568;-80
2022/04/11 04:57:03;;;;;;;7.38;3.38;;;;;;;;;;4949488;28;20422;-79
2022/04/11 04:59:30;;;;;;;8.90;3.95;;;;;;;;;;4953428;28;20472;-77
2022/04/11 05:01:56;;;;;;;7.18;3.80;;;;;;;;;;5014067;28;20441;-77
2022/04/11 05:04:22;;;;;;;7.53;3.83;;;;;;;;;;5017057;28;20426;-79
2022/04/11 05:06:48;;;;;;;7.20;4.03;;;;;;;;;;4999491;28;20426;-78
2022/04/11 05:09:14;;;;;;;8.50;4.18;;;;;;;;;;4998315;28;20458;-77
2022/04/11 05:11:40;;;;;;;10.70;5.75;;;;;;;;;;5001672;28;20425;-78
2022/04/11 05:14:09;;;;;;;8.93;5.70;;;;;;;;;;5008043;28;20497;-77
2022/04/11 05:16:35;;;;;;;7.45;4.80;;;;;;;;;;4945825;28;20432;-77
2022/04/11 05:19:02;;;;;;;10.02;4.63;;;;;;;;;;5015204;28;20944;-77
2022/04/11 05:21:29;;;;;;;8.63;4.75;;;;;;;;;;4999102;28;20430;-77
2022/04/11 05:23:55;;;;;;;8.60;4.78;;;;;;;;;;4997379;28;20517;-78
2022/04/11 05:26:21;;;;;;;7.30;4.53;;;;;;;;;;4997722;28;20913;-77
2022/04/11 05:28:50;;;;;;;10.23;6.25;;;;;;;;;;4988174;28;20492;-78
2022/04/11 05:31:17;;;;;;;7.07;4.20;;;;;;;;;;5010495;28;20434;-78
2022/04/11 05:33:43;;;;;;;8.52;4.60;;;;;;;;;;4948661;28;20426;-78
2022/04/11 05:36:09;;;;;;;10.10;4.70;;;;;;;;;;4949656;28;20912;-78
2022/04/11 05:38:36;;;;;;;8.85;5.38;;;;;;;;;;5014924;28;20511;-78
2022/04/11 05:41:02;;;;;;;8.60;5.28;;;;;;;;;;4954772;28;20448;-78
2022/04/11 05:43:28;;;;;;;8.80;4.80;;;;;;;;;;4999039;28;20429;-78
2022/04/11 05:45:54;;;;;;;9.57;4.60;;;;;;;;;;5012573;28;20917;-78
2022/04/11 05:48:20;;;;;;;7.78;4.47;;;;;;;;;;4988726;28;20434;-77
2022/04/11 05:50:46;;;;;;;7.53;4.20;;;;;;;;;;4998262;28;20986;-80
2022/04/11 05:53:13;;;;;;;8.02;4.60;;;;;;;;;;4947959;28;20458;-79
2022/04/11 05:55:39;;;;;;;10.52;5.05;;;;;;;;;;5013420;28;20487;-79
2022/04/11 05:58:05;;;;;;;12.43;7.65;;;;;;;;;;5015542;28;20425;-80
2022/04/11 06:00:31;;;;;;;15.45;9.48;;;;;;;;;;4995212;28;20445;-80
2022/04/11 06:02:59;;;;;;;22.15;12.73;;;;;;;;;;5013895;28;20434;-80
2022/04/11 06:05:25;;;;;;;88.03;47.60;;;;;;;;;;5014829;28;20460;-80
2022/04/11 06:07:51;;;;;;;28.45;17.83;;;;;;;;;;4998380;28;20430;-80
2022/04/11 06:10:17;;;;;;;9.38;5.50;;;;;;;;;;4947554;28;20434;-79
2022/04/11 06:12:43;;;;;;;8.43;4.38;;;;;;;;;;4947177;28;20425;-77
2022/04/11 06:15:11;;;;;;;9.87;5.73;;;;;;;;;;5014184;28;20497;-76
2022/04/11 06:17:38;;;;;;;8.90;6.50;;;;;;;;;;4948088;28;20452;-77
2022/04/11 06:20:04;;;;;;;9.25;6.70;;;;;;;;;;5015072;28;20430;-77
2022/04/11 06:22:30;;;;;;;9.32;6.32;;;;;;;;;;4977974;28;20934;-77
2022/04/11 06:25:00;;;;;;;8.35;5.00;;;;;;;;;;4923551;28;20423;-77
2022/04/11 06:27:27;;;;;;;7.10;4.25;;;;;;;;;;4939202;28;20422;-76
2022/04/11 06:29:56;;;;;;;8.15;4.38;;;;;;;;;;5016977;28;20465;-76
2022/04/11 06:32:29;;;;;;;8.48;5.28;;;;;;;;;;4952313;28;20430;-75
2022/04/11 06:34:55;;;;;;;10.20;5.15;;;;;;;;;;4943866;28;20434;-75
2022/04/11 06:37:21;;;;;;;10.25;5.25;;;;;;;;;;4947532;28;20931;-75
2022/04/11 06:39:48;;;;;;;10.23;5.18;;;;;;;;;;4948735;28;20544;-75
2022/04/11 06:42:14;;;;;;;8.55;5.25;;;;;;;;;;4945588;28;20425;-75
2022/04/11 06:44:40;;;;;;;10.93;6.67;;;;;;;;;;4944086;28;21100;-75
2022/04/11 06:47:08;;;;;;;14.20;8.57;;;;;;;;;;4945430;28;20501;-74
2022/04/11 06:49:34;;;;;;;14.50;9.40;;;;;;;;;;4941640;28;20921;-74
2022/04/11 06:52:01;;;;;;;14.80;11.40;;;;;;;;;;4944035;28;20426;-75
2022/04/11 06:54:27;;;;;;;8.27;5.60;;;;;;;;;;4947068;28;20437;-76
2022/04/11 06:56:53;;;;;;;8.52;4.20;;;;;;;;;;5013585;28;20421;-75
2022/04/11 06:59:19;;;;;;;8.07;4.63;;;;;;;;;;4944840;28;20503;-75
2022/04/11 07:01:45;;;;;;;8.50;5.20;;;;;;;;;;4945300;28;20472;-75
2022/04/11 07:04:11;;;;;;;8.98;4.40;;;;;;;;;;4948009;28;20918;-76
2022/04/11 07:06:37;;;;;;;7.55;5.40;;;;;;;;;;4946694;28;20978;-77
2022/04/11 07:09:04;;;;;;;8.25;4.10;;;;;;;;;;4998122;28;20917;-79
2022/04/11 07:11:33;;;;;;;7.28;3.63;;;;;;;;;;4991629;28;20437;-78
2022/04/11 07:14:01;;;;;;;11.00;3.78;;;;;;;;;;5006806;28;20450;-77
2022/04/11 07:16:27;;;;;;;7.70;5.38;;;;;;;;;;5011821;28;20441;-78
2022/04/11 07:18:53;;;;;;;8.13;4.13;;;;;;;;;;5013727;28;20431;-77
2022/04/11 07:21:19;;;;;;;7.05;3.63;;;;;;;;;;5012932;28;20832;-76
2022/04/11 07:23:45;;;;;;;7.78;3.50;;;;;;;;;;4947771;28;20453;-76
2022/04/11 07:26:12;;;;;;;6.68;3.55;;;;;;;;;;5007432;28;20434;-77
2022/04/11 07:28:39;;;;;;;6.47;3.38;;;;;;;;;;5011729;28;20420;-76
2022/04/11 07:31:05;;;;;;;6.63;3.22;;;;;;;;;;4920450;28;20436;-76
2022/04/11 07:33:32;;;;;;;6.75;3.30;;;;;;;;;;4949639;28;20832;-76
2022/04/11 07:35:58;;;;;;;7.10;3.30;;;;;;;;;;5010679;28;20951;-76
2022/04/11 07:38:24;;;;;;;6.15;3.47;;;;;;;;;;4959927;28;20422;-77
2022/04/11 07:40:50;;;;;;;8.05;3.30;;;;;;;;;;4947359;28;20434;-77
2022/04/11 07:43:16;;;;;;;6.22;3.40;;;;;;;;;;4943986;28;20468;-76
2022/04/11 07:45:43;;;;;;;5.13;2.90;;;;;;;;;;4943420;28;20466;-74
2022/04/11 07:48:09;;;;;;;7.90;3.00;;;;;;;;;;4941386;28;21007;-74
2022/04/11 07:50:36;;;;;;;5.97;2.80;;;;;;;;;;4974779;28;20476;-75
2022/04/11 07:53:02;;;;;;;6.15;2.97;;;;;;;;;;4992193;28;20921;-76
2022/04/11 07:55:28;;;;;;;7.13;2.80;;;;;;;;;;4948498;28;20434;-76
2022/04/11 07:57:55;;;;;;;5.78;2.97;;;;;;;;;;5015588;28;20513;-76
2022/04/11 08:00:22;;;;;;;5.78;2.80;;;;;;;;;;4948604;28;20797;-76
2022/04/11 08:02:54;;;;;;;8.15;3.08;;;;;;;;;;4948029;28;20521;-76
2022/04/11 08:05:20;;;;;;;7.55;3.08;;;;;;;;;;4944749;28;20426;-76
2022/04/11 08:07:50;;;;;;;5.67;2.43;;;;;;;;;;4945751;28;20956;-76
2022/04/11 08:10:16;;;;;;;6.73;2.77;;;;;;;;;;5011095;28;20436;-76
2022/04/11 08:12:55;;;;;;;5.50;2.67;;;;;;;;;;4947478;28;20437;-75
2022/04/11 08:15:22;;;;;;;7.15;2.53;;;;;;;;;;4948459;28;20452;-76
2022/04/11 08:17:48;;;;;;;5.37;2.60;;;;;;;;;;4948688;28;20472;-75
2022/04/11 08:20:14;;;;;;;5.40;2.65;;;;;;;;;;5013966;28;20454;-76
2022/04/11 08:22:41;;;;;;;4.33;2.43;;;;;;;;;;4950979;28;20581;-75
2022/04/11 08:25:08;;;;;;;4.90;2.58;;;;;;;;;;5014497;28;20946;-75
2022/04/11 08:27:34;;;;;;;6.22;2.85;;;;;;;;;;5012279;28;20449;-76
2022/04/11 08:30:00;;;;;;;7.83;3.60;;;;;;;;;;4948628;28;20832;-75
2022/04/11 08:32:27;;;;;;;7.35;2.88;;;;;;;;;;5011105;28;20828;-75
2022/04/11 08:34:53;;;;;;;5.20;2.40;;;;;;;;;;5013582;28;20430;-76
2022/04/11 08:37:19;;;;;;;6.28;2.53;;;;;;;;;;5010907;28;20469;-75
2022/04/11 08:39:45;;;;;;;5.38;2.60;;;;;;;;;;4977946;28;20442;-74
2022/04/11 08:42:12;;;;;;;5.40;2.70;;;;;;;;;;4999577;28;20736;-74
2022/04/11 08:44:38;;;;;;;6.47;2.72;;;;;;;;;;4950843;28;20422;-74
2022/04/11 08:47:07;;;;;;;6.10;2.65;;;;;;;;;;5013980;28;20504;-74
2022/04/11 08:49:33;;;;;;;4.50;2.60;;;;;;;;;;4947828;28;20501;-74
2022/04/11 08:51:59;;;;;;;5.65;2.80;;;;;;;;;;4948526;28;20495;-74
2022/04/11 08:54:26;;;;;;;5.35;2.67;;;;;;;;;;5015970;28;20430;-74
2022/04/11 08:56:52;;;;;;;6.32;2.50;;;;;;;;;;4980667;28;20417;-74
2022/04/11 08:59:18;;;;;;;5.55;2.55;;;;;;;;;;5015551;28;20795;-74
2022/04/11 09:01:44;;;;;;;4.60;2.35;;;;;;;;;;4947570;28;20471;-74
2022/04/11 09:04:10;;;;;;;5.47;2.73;;;;;;;;;;4959437;28;20543;-74
2022/04/11 09:06:36;;;;;;;5.05;2.40;;;;;;;;;;5017934;28;20434;-74
2022/04/11 09:09:03;;;;;;;7.13;2.40;;;;;;;;;;5031045;28;20811;-74
2022/04/11 09:11:36;;;;;;;6.05;2.50;;;;;;;;;;4949658;28;20422;-73
2022/04/11 09:14:04;;;;;;;4.82;2.22;;;;;;;;;;5013143;28;20434;-74
2022/04/11 09:16:44;;;;;;;5.32;2.30;;;;;;;;;;4996704;28;20565;-74
2022/04/11 09:19:18;;;;;;;6.35;1.90;;;;;;;;;;4949233;28;20449;-74
2022/04/11 09:21:45;;;;;;;5.88;1.80;;;;;;;;;;4945865;28;20857;-74
2022/04/11 09:24:15;;;;;;;4.53;1.98;;;;;;;;;;5016777;28;20440;-74
2022/04/11 09:26:42;;;;;;;4.57;2.00;;;;;;;;;;4949083;28;20449;-74
2022/04/11 09:29:08;;;;;;;4.68;1.90;;;;;;;;;;4949169;28;20434;-74
2022/04/11 09:31:34;;;;;;;4.10;1.92;;;;;;;;;;4946259;28;20426;-75
2022/04/11 09:34:17;;;;;;;6.68;2.33;;;;;;;;;;5013784;28;20429;-74
2022/04/11 09:36:48;;;;;;;4.28;1.90;;;;;;;;;;5014369;28;21011;-74
2022/04/11 09:39:14;;;;;;;3.85;1.60;;;;;;;;;;4947198;28;20440;-74
2022/04/11 09:41:46;;;;;;;3.92;1.67;;;;;;;;;;4949488;28;20426;-74
2022/04/11 09:44:28;;;;;;;5.55;2.00;;;;;;;;;;4944511;28;20536;-74
2022/04/11 09:46:58;;;;;;;3.95;1.90;;;;;;;;;;5010893;28;20874;-74
2022/04/11 09:49:24;;;;;;;4.97;2.10;;;;;;;;;;5014622;28;20490;-74
2022/04/11 09:52:04;;;;;;;6.15;2.50;;;;;;;;;;4949197;28;20426;-74
2022/04/11 09:54:31;;;;;;;5.25;2.25;;;;;;;;;;4948329;28;20426;-74
2022/04/11 09:57:01;;;;;;;4.82;2.08;;;;;;;;;;4947587;28;20828;-74
2022/04/11 09:59:27;;;;;;;4.82;2.58;;;;;;;;;;4948733;28;20434;-74
2022/04/11 10:01:57;;;;;;;5.00;2.60;;;;;;;;;;4949355;28;20491;-74
2022/04/11 10:04:23;;;;;;;5.40;2.67;;;;;;;;;;4949190;28;21019;-74
2022/04/11 10:06:49;;;;;;;6.68;2.85;;;;;;;;;;4924781;28;20820;-74
2022/04/11 10:09:16;;;;;;;6.60;2.53;;;;;;;;;;4949224;28;20504;-74
2022/04/11 10:11:43;;;;;;;6.40;2.50;;;;;;;;;;4944551;28;20425;-74
2022/04/11 10:14:12;;;;;;;6.15;2.97;;;;;;;;;;4949541;28;20426;-74
2022/04/11 10:16:42;;;;;;;6.30;2.70;;;;;;;;;;4942158;28;20436;-74
2022/04/11 10:19:09;;;;;;;6.20;2.80;;;;;;;;;;4948517;28;20471;-74
2022/04/11 10:21:39;;;;;;;4.97;2.75;;;;;;;;;;4998254;28;20438;-74
2022/04/11 10:24:07;;;;;;;5.43;2.85;;;;;;;;;;4943479;28;20437;-74
2022/04/11 10:26:46;;;;;;;6.75;2.90;;;;;;;;;;4944027;28;20952;-75
2022/04/11 10:29:33;;;;;;;4.95;2.70;;;12.50;99.90;;;;;;4948516;28;20425;-74
2022/04/11 10:32:10;;;;;;;5.10;2.90;;;;;;;;;;4948442;28;20432;-74
2022/04/11 10:34:48;;;;;;;4.88;2.55;;;;;;;;;;4945266;28;20907;-74
2022/04/11 10:37:16;;;;;;;6.13;2.70;;;;;;;;;;4948655;28;20434;-75
2022/04/11 10:39:44;;;;;;;5.07;2.97;;;;;;;;;;5013101;28;20446;-75
2022/04/11 10:42:11;;;;;;;5.30;2.80;;;;;;;;;;4995650;28;20567;-74
2022/04/11 10:44:42;;;;;;;5.25;2.67;;;;;;;;;;4946615;28;20458;-74
2022/04/11 10:47:08;;;;;;;4.72;2.78;;;;;;;;;;4946325;28;20449;-74
2022/04/11 10:49:55;;;;;;;6.43;2.90;;;;;;;;;;4947859;28;20529;-75
2022/04/11 10:52:33;;;;;;;5.10;2.72;;;;;;;;;;4948165;28;20429;-74
2022/04/11 10:55:15;;;;;;;5.72;2.65;;;;;;;;;;4948799;28;20496;-74
2022/04/11 10:57:43;;;;;;;4.43;2.72;;;;;;;;;;5012594;28;20793;-75
2022/04/11 11:00:19;;;;;;;8.02;2.88;;;;;;;;;;4939890;28;20947;-75
2022/04/11 11:05:29;;;;;;;5.40;2.75;;;;;;;;;;4948820;28;20426;-74
2022/04/11 11:08:10;;;;;;;6.38;3.00;;;;;;;;;;4945379;28;20444;-75
2022/04/11 11:10:43;;;;;;;5.27;2.97;;;;;;;;;;4946099;28;20560;-74
2022/04/11 11:13:30;;;;;;;6.13;2.95;;;;;;;;;;5007433;28;20434;-75
2022/04/11 11:15:57;;;;;;;6.35;2.88;;;;;;;;;;4939373;28;20511;-75
2022/04/11 11:18:23;;;;;;;4.35;2.70;;;;;;;;;;5008268;28;20440;-75
2022/04/11 11:20:51;;;;;;;7.53;3.38;;;;;;;;;;4944835;28;20921;-75
2022/04/11 11:23:31;;;;;;;4.57;2.85;;;;;;;;;;5008977;28;20976;-75
2022/04/11 11:26:08;;;;;;;5.72;3.20;;;;;;;;;;5011214;28;20505;-75
2022/04/11 11:28:34;;;;;;;5.97;3.07;;;;;;;;;;4946327;28;20433;-75
2022/04/11 11:31:01;;;;;;;4.70;3.10;;;;;;;;;;5016257;28;20461;-74
2022/04/11 11:33:27;;;;;;;6.20;3.40;;;;;;;;;;5001372;28;20433;-74
2022/04/11 11:35:55;;;;;;;6.05;3.40;;;;;;;;;;5011322;28;20514;-73
2022/04/11 11:38:26;;;;;;;5.38;3.25;;;14.10;99.90;;;;;;4947368;28;20440;-75
2022/04/11 11:40:56;;;;;;;7.05;3.30;;;14.40;99.90;;;;;;4952124;28;20551;-75
2022/04/11 11:43:23;;;;;;;6.00;3.33;;;;;;;;;;4945428;28;20441;-75
2022/04/11 11:45:50;;;;;;;5.63;3.00;;;14.40;99.90;;;;;;5014653;28;20438;-75
2022/04/11 11:48:25;;;;;;;8.50;3.20;;;14.20;99.90;;;;;;4927680;28;20991;-75
2022/04/11 11:50:55;;;;;;;6.10;3.03;;;14.60;99.90;;;;;;4949629;28;20864;-75
2022/04/11 11:53:22;;;;;;;8.67;3.30;;;14.60;99.90;;;;;;5015823;28;20459;-75
2022/04/11 11:55:51;;;;;;;6.53;3.25;;;14.50;99.90;;;;;;5015168;28;20987;-75
2022/04/11 11:58:17;;;;;;;8.80;4.05;;;14.60;99.90;;;;;;5005754;28;20780;-75
2022/04/11 12:00:49;;;;;;;5.93;3.35;;;14.90;99.90;;;;;;4998903;28;20446;-75
2022/04/11 12:06:03;;;;;;;6.32;3.90;;;14.30;99.90;;;;;;5017199;28;20505;-75
2022/04/11 12:08:32;;;;;;;7.30;3.70;;;14.10;99.90;;;;;;4999006;28;20440;-74
2022/04/11 12:10:59;;;;;;;7.97;4.03;;;14.20;99.90;;;;;;5003132;28;20909;-75
2022/04/11 12:13:30;;;;;;;7.18;3.50;;;14.50;99.90;;;;;;5013253;28;20441;-75
2022/04/11 12:16:10;;;;;;;7.93;4.00;;;14.30;99.90;;;;;;5009066;28;20433;-75
2022/04/11 12:18:56;;;;;;;7.55;3.78;;;14.30;99.90;;;;;;5015067;28;20929;-75
2022/04/11 12:21:29;;;;;;;5.43;3.50;;;;;;;;;;5005178;28;20442;-75
2022/04/11 12:23:55;;;;;;;6.00;3.70;;;14.50;99.90;;;;;;5010279;28;20808;-75
2022/04/11 12:26:32;;;;;;;7.22;3.80;;;14.30;99.90;;;;;;5015578;28;20479;-75
2022/04/11 12:29:02;;;;;;;7.13;3.92;;;13.70;99.90;;;;;;5006409;28;20548;-75
2022/04/11 12:31:28;;;;;;;7.07;3.90;;;14.30;99.90;;;;;;5008404;28;20914;-75
2022/04/11 12:33:54;;;;;;;10.10;3.92;;;14.20;99.90;;;;;;4924431;28;20430;-75
2022/04/11 12:36:30;;;;;;;5.82;3.70;;;14.80;99.90;;;;;;5009160;28;20589;-75
2022/04/11 12:39:11;;;;;;;7.43;3.67;;;15.20;99.90;;;;;;5002595;28;20901;-75
2022/04/11 12:41:41;;;;;;;6.35;3.58;;;15.40;99.90;;;;;;4991762;28;20828;-75
2022/04/11 12:44:16;;;;;;;6.60;3.67;;;15.30;99.90;;;;;;5011889;28;20778;-74
2022/04/11 12:47:04;;;;;;;6.05;3.80;;;15.20;99.90;;;;;;4992969;28;20452;-75
2022/04/11 12:49:47;;;;;;;5.70;3.80;;;14.70;99.90;;;;;;4997886;28;20438;-75
2022/04/11 12:52:22;;;;;;;7.70;4.38;;;14.80;99.90;;;;;;5012437;28;20483;-74
2022/04/11 12:55:01;;;;;;;6.57;3.90;;;14.00;99.90;;;;;;5009923;28;21006;-75
2022/04/11 12:57:33;;;;;;;6.07;4.10;;;14.50;99.90;;;;;;5010307;28;20469;-74
2022/04/11 13:00:23;;;;;;;5.67;3.77;;;14.10;99.90;;;;;;5008847;28;20434;-75
2022/04/11 13:02:51;;;;;;;6.43;4.20;;;;;;;;;;5012108;28;20933;-74
2022/04/11 13:05:17;;;;;;;6.80;4.20;;;;;;;;;;5013013;28;20432;-75
2022/04/11 13:07:47;;;;;;;8.33;4.63;;;13.80;99.90;;;;;;4994277;28;20527;-75
2022/04/11 13:10:13;;;;;;;8.23;4.20;;;14.40;99.90;;;;;;5004099;28;21041;-74
2022/04/11 13:12:39;;;;;;;7.18;4.72;;;14.30;99.90;;;;;;4995672;28;20438;-75
2022/04/11 13:15:07;;;;;;;6.57;3.90;;;14.20;99.90;;;;;;5005135;28;20507;-75
2022/04/11 13:20:21;;;;;;;8.02;4.28;;;14.20;99.90;;;;;;5006445;28;20447;-73
2022/04/11 13:22:47;;;;;;;6.77;4.27;;;14.60;99.90;;;;;;4999461;28;20518;-73
2022/04/11 13:25:12;;;;;;;7.00;4.37;;;14.70;99.90;;;;;;4961405;28;20434;-73
2022/04/11 13:27:38;;;;;;;7.55;4.60;;;15.00;99.90;;;;;;5007264;28;20443;-73
2022/04/11 13:30:04;;;;;;;7.13;4.80;;;;;;;;;;4999511;28;20496;-73
2022/04/11 13:32:30;;;;;;;7.33;4.73;;;15.40;99.70;;;;;;5012532;28;20508;-73
2022/04/11 13:34:56;;;;;;;6.97;4.27;;;15.30;99.90;;;;;;5011270;28;20441;-73
2022/04/11 13:37:21;;;;;;;7.03;4.57;;;15.10;99.30;;;;;;4993126;28;20505;-74
2022/04/11 13:39:47;;;;;;;7.25;5.07;;;;;;;;;;4975398;28;20434;-73
2022/04/11 13:42:13;;;;;;;6.65;4.75;;;14.50;99.90;;;;;;5013252;28;20434;-73
2022/04/11 13:44:40;;;;;;;9.80;4.90;;;;;;;;;;5014691;28;20432;-73
2022/04/11 13:47:06;;;;;;;7.53;4.43;;;14.10;99.90;;;;;;5017150;28;20801;-72
2022/04/11 13:49:32;;;;;;;8.32;4.50;;;;;;;;;;5015319;28;20438;-73
2022/04/11 13:51:58;;;;;;;6.78;4.28;;;14.10;99.90;;;;;;4998058;28;20438;-73
2022/04/11 13:54:24;;;;;;;7.57;4.97;;;14.20;99.90;;;;;;5014310;28;20446;-73
2022/04/11 13:56:51;;;;;;;6.88;5.03;;;;;;;;;;5013328;28;20525;-72
2022/04/11 13:59:20;;;;;;;9.05;4.93;;;;;;;;;;5015894;28;20445;-73
2022/04/11 14:01:46;;;;;;;8.25;4.47;;;;;;;;;;5027451;28;20434;-73
2022/04/11 14:04:12;;;;;;;8.57;4.43;;;14.70;99.90;;;;;;5009539;28;20430;-72
2022/04/11 14:06:40;;;;;;;6.72;4.47;;;14.80;99.90;;;;;;5010502;28;20438;-72
2022/04/11 14:09:07;;;;;;;7.00;5.10;;;;;;;;;;5019483;28;20440;-73
2022/04/11 14:11:34;;;;;;;8.25;4.90;;;;;;;;;;5012791;28;20526;-73
2022/04/11 14:14:00;;;;;;;8.10;4.95;;;;;;;;;;5006472;28;20428;-72
2022/04/11 14:16:26;;;;;;;7.50;4.80;;;;;;;;;;5012653;28;20505;-72
2022/04/11 14:18:52;;;;;;;8.50;4.72;;;;;;;;;;5012276;28;20446;-72
2022/04/11 14:21:19;;;;;;;8.93;4.82;;;;;;;;;;4946244;28;20438;-72
2022/04/11 14:23:45;;;;;;;6.85;4.72;;;;;;;;;;5011649;28;20429;-72
2022/04/11 14:26:11;;;;;;;8.55;5.35;;;;;;;;;;5015616;28;20505;-72
2022/04/11 14:28:38;;;;;;;9.18;5.15;;;;;;;;;;4980950;28;20488;-72
2022/04/11 14:31:04;;;;;;;7.28;4.68;;;;;;;;;;5013142;28;20434;-74
2022/04/11 14:33:31;;;;;;;7.95;4.78;;;;;;;;;;4996988;28;20825;-72
2022/04/11 14:35:57;;;;;;;7.27;4.63;;;;;;;;;;5009693;28;21008;-73